sensor_id;sensor_type;location;lat;lon;timestamp;P1;durP1;ratioP1;P2;durP2;ratioP2
45232;SDS011;30969;51.052;17.056;2022-08-23T00:00:30;13.70;;;11.15;;
45232;SDS011;30969;51.052;17.056;2022-08-23T00:05:40;13.25;;;11.88;;
45232;SDS011;30969;51.052;17.056;2022-08-23T00:10:43;12.15;;;10.88;;
45232;SDS011;30969;51.052;17.056;2022-08-23T00:15:46;13.65;;;12.18;;
45232;SDS011;30969;51.052;17.056;2022-08-23T00:20:52;15.07;;;12.00;;
45232;SDS011;30969;51.052;17.056;2022-08-23T00:25:55;13.88;;;12.38;;
45232;SDS011;30969;51.052;17.056;2022-08-23T00:30:59;16.67;;;11.93;;
45232;SDS011;30969;51.052;17.056;2022-08-23T00:36:04;16.75;;;12.77;;
45232;SDS011;30969;51.052;17.056;2022-08-23T00:41:08;15.15;;;12.50;;
45232;SDS011;30969;51.052;17.056;2022-08-23T00:46:15;14.68;;;12.55;;
45232;SDS011;30969;51.052;17.056;2022-08-23T00:51:45;14.38;;;12.88;;
45232;SDS011;30969;51.052;17.056;2022-08-23T00:56:55;12.75;;;11.43;;
45232;SDS011;30969;51.052;17.056;2022-08-23T01:02:01;14.80;;;12.95;;
45232;SDS011;30969;51.052;17.056;2022-08-23T01:07:08;19.33;;;12.25;;
45232;SDS011;30969;51.052;17.056;2022-08-23T01:12:19;14.98;;;12.27;;
45232;SDS011;30969;51.052;17.056;2022-08-23T01:17:34;18.63;;;12.65;;
45232;SDS011;30969;51.052;17.056;2022-08-23T01:22:47;14.38;;;12.27;;
45232;SDS011;30969;51.052;17.056;2022-08-23T01:27:57;13.57;;;11.95;;
45232;SDS011;30969;51.052;17.056;2022-08-23T01:33:05;14.25;;;11.90;;
45232;SDS011;30969;51.052;17.056;2022-08-23T01:38:09;14.13;;;12.63;;
45232;SDS011;30969;51.052;17.056;2022-08-23T01:43:15;12.93;;;11.20;;
45232;SDS011;30969;51.052;17.056;2022-08-23T01:48:22;14.73;;;12.90;;
45232;SDS011;30969;51.052;17.056;2022-08-23T01:53:26;12.80;;;11.35;;
45232;SDS011;30969;51.052;17.056;2022-08-23T01:58:31;11.90;;;10.55;;
45232;SDS011;30969;51.052;17.056;2022-08-23T02:03:35;9.77;;;8.88;;
45232;SDS011;30969;51.052;17.056;2022-08-23T02:08:39;11.27;;;10.10;;
45232;SDS011;30969;51.052;17.056;2022-08-23T02:14:03;11.15;;;9.35;;
45232;SDS011;30969;51.052;17.056;2022-08-23T02:19:10;11.50;;;10.35;;
45232;SDS011;30969;51.052;17.056;2022-08-23T02:24:16;11.55;;;8.95;;
45232;SDS011;30969;51.052;17.056;2022-08-23T02:29:24;9.73;;;8.73;;
45232;SDS011;30969;51.052;17.056;2022-08-23T02:34:30;9.45;;;8.48;;
45232;SDS011;30969;51.052;17.056;2022-08-23T02:39:34;10.05;;;8.57;;
45232;SDS011;30969;51.052;17.056;2022-08-23T02:44:41;9.25;;;8.25;;
45232;SDS011;30969;51.052;17.056;2022-08-23T02:49:44;9.23;;;8.23;;
45232;SDS011;30969;51.052;17.056;2022-08-23T02:54:48;11.25;;;8.65;;
45232;SDS011;30969;51.052;17.056;2022-08-23T02:59:55;10.15;;;8.52;;
45232;SDS011;30969;51.052;17.056;2022-08-23T03:04:58;8.38;;;7.40;;
45232;SDS011;30969;51.052;17.056;2022-08-23T03:10:02;12.68;;;7.32;;
45232;SDS011;30969;51.052;17.056;2022-08-23T03:15:09;9.40;;;8.07;;
45232;SDS011;30969;51.052;17.056;2022-08-23T03:20:13;8.45;;;7.00;;
45232;SDS011;30969;51.052;17.056;2022-08-23T03:25:17;7.72;;;6.85;;
45232;SDS011;30969;51.052;17.056;2022-08-23T03:30:22;8.10;;;6.80;;
45232;SDS011;30969;51.052;17.056;2022-08-23T03:35:25;8.65;;;6.80;;
45232;SDS011;30969;51.052;17.056;2022-08-23T03:40:29;9.60;;;7.25;;
45232;SDS011;30969;51.052;17.056;2022-08-23T03:45:34;9.73;;;7.20;;
45232;SDS011;30969;51.052;17.056;2022-08-23T03:50:38;7.90;;;7.10;;
45232;SDS011;30969;51.052;17.056;2022-08-23T03:55:41;7.72;;;6.78;;
45232;SDS011;30969;51.052;17.056;2022-08-23T04:00:46;7.70;;;6.90;;
45232;SDS011;30969;51.052;17.056;2022-08-23T04:05:50;10.05;;;7.85;;
45232;SDS011;30969;51.052;17.056;2022-08-23T04:10:53;11.13;;;8.43;;
45232;SDS011;30969;51.052;17.056;2022-08-23T04:15:58;10.20;;;7.60;;
45232;SDS011;30969;51.052;17.056;2022-08-23T04:21:05;7.95;;;6.97;;
45232;SDS011;30969;51.052;17.056;2022-08-23T04:26:11;9.50;;;6.88;;
45232;SDS011;30969;51.052;17.056;2022-08-23T04:31:16;9.13;;;6.97;;
45232;SDS011;30969;51.052;17.056;2022-08-23T04:36:23;7.82;;;6.68;;
45232;SDS011;30969;51.052;17.056;2022-08-23T04:41:28;10.88;;;7.43;;
45232;SDS011;30969;51.052;17.056;2022-08-23T04:46:51;7.60;;;6.80;;
45232;SDS011;30969;51.052;17.056;2022-08-23T04:51:54;9.90;;;6.57;;
45232;SDS011;30969;51.052;17.056;2022-08-23T04:56:58;8.65;;;6.10;;
45232;SDS011;30969;51.052;17.056;2022-08-23T05:02:03;7.03;;;6.07;;
45232;SDS011;30969;51.052;17.056;2022-08-23T05:07:06;8.07;;;6.65;;
45232;SDS011;30969;51.052;17.056;2022-08-23T05:12:10;8.82;;;6.78;;
45232;SDS011;30969;51.052;17.056;2022-08-23T05:17:15;7.30;;;6.60;;
45232;SDS011;30969;51.052;17.056;2022-08-23T05:22:19;7.18;;;6.47;;
45232;SDS011;30969;51.052;17.056;2022-08-23T05:27:22;7.53;;;6.80;;
45232;SDS011;30969;51.052;17.056;2022-08-23T05:32:27;7.93;;;6.53;;
45232;SDS011;30969;51.052;17.056;2022-08-23T05:37:34;7.22;;;6.43;;
45232;SDS011;30969;51.052;17.056;2022-08-23T05:42:38;10.30;;;6.45;;
45232;SDS011;30969;51.052;17.056;2022-08-23T05:47:45;9.63;;;5.85;;
45232;SDS011;30969;51.052;17.056;2022-08-23T05:52:50;9.52;;;6.93;;
45232;SDS011;30969;51.052;17.056;2022-08-23T05:57:54;8.20;;;6.60;;
45232;SDS011;30969;51.052;17.056;2022-08-23T06:02:59;9.10;;;7.50;;
45232;SDS011;30969;51.052;17.056;2022-08-23T06:08:02;10.18;;;7.72;;
45232;SDS011;30969;51.052;17.056;2022-08-23T06:13:06;9.77;;;7.20;;
45232;SDS011;30969;51.052;17.056;2022-08-23T06:18:11;8.98;;;7.57;;
45232;SDS011;30969;51.052;17.056;2022-08-23T06:23:15;11.82;;;8.43;;
45232;SDS011;30969;51.052;17.056;2022-08-23T06:28:18;10.05;;;9.07;;
45232;SDS011;30969;51.052;17.056;2022-08-23T06:33:28;16.23;;;9.75;;
45232;SDS011;30969;51.052;17.056;2022-08-23T06:38:31;15.90;;;10.93;;
45232;SDS011;30969;51.052;17.056;2022-08-23T06:43:36;12.07;;;9.90;;
45232;SDS011;30969;51.052;17.056;2022-08-23T06:48:42;13.55;;;9.98;;
45232;SDS011;30969;51.052;17.056;2022-08-23T06:53:47;12.52;;;10.40;;
45232;SDS011;30969;51.052;17.056;2022-08-23T06:58:52;15.98;;;10.52;;
45232;SDS011;30969;51.052;17.056;2022-08-23T07:03:58;14.82;;;10.65;;
45232;SDS011;30969;51.052;17.056;2022-08-23T07:09:03;14.07;;;10.30;;
45232;SDS011;30969;51.052;17.056;2022-08-23T07:14:08;15.32;;;11.40;;
45232;SDS011;30969;51.052;17.056;2022-08-23T07:19:14;17.65;;;11.18;;
45232;SDS011;30969;51.052;17.056;2022-08-23T07:24:21;13.85;;;11.48;;
45232;SDS011;30969;51.052;17.056;2022-08-23T07:29:24;17.20;;;11.15;;
45232;SDS011;30969;51.052;17.056;2022-08-23T07:34:29;16.25;;;10.77;;
45232;SDS011;30969;51.052;17.056;2022-08-23T07:39:33;19.05;;;11.27;;
45232;SDS011;30969;51.052;17.056;2022-08-23T07:44:37;17.85;;;11.15;;
45232;SDS011;30969;51.052;17.056;2022-08-23T07:49:42;14.52;;;10.70;;
45232;SDS011;30969;51.052;17.056;2022-08-23T07:54:45;15.50;;;10.90;;
45232;SDS011;30969;51.052;17.056;2022-08-23T07:59:50;16.00;;;12.60;;
45232;SDS011;30969;51.052;17.056;2022-08-23T08:04:55;15.30;;;11.50;;
45232;SDS011;30969;51.052;17.056;2022-08-23T08:09:58;17.80;;;12.50;;
45232;SDS011;30969;51.052;17.056;2022-08-23T08:15:02;16.95;;;11.70;;
45232;SDS011;30969;51.052;17.056;2022-08-23T08:20:08;22.58;;;12.35;;
45232;SDS011;30969;51.052;17.056;2022-08-23T08:25:12;22.10;;;13.88;;
45232;SDS011;30969;51.052;17.056;2022-08-23T08:30:16;17.38;;;11.93;;
45232;SDS011;30969;51.052;17.056;2022-08-23T08:35:21;15.38;;;13.27;;
45232;SDS011;30969;51.052;17.056;2022-08-23T08:40:26;21.83;;;16.08;;
45232;SDS011;30969;51.052;17.056;2022-08-23T08:45:36;17.80;;;13.90;;
45232;SDS011;30969;51.052;17.056;2022-08-23T08:51:02;24.27;;;16.15;;
45232;SDS011;30969;51.052;17.056;2022-08-23T08:56:20;16.77;;;14.60;;
45232;SDS011;30969;51.052;17.056;2022-08-23T09:01:34;19.67;;;17.23;;
45232;SDS011;30969;51.052;17.056;2022-08-23T09:06:43;22.75;;;14.32;;
45232;SDS011;30969;51.052;17.056;2022-08-23T09:11:56;15.98;;;11.85;;
45232;SDS011;30969;51.052;17.056;2022-08-23T09:17:10;14.75;;;11.88;;
45232;SDS011;30969;51.052;17.056;2022-08-23T09:22:24;15.93;;;13.07;;
45232;SDS011;30969;51.052;17.056;2022-08-23T09:27:33;15.75;;;12.23;;
45232;SDS011;30969;51.052;17.056;2022-08-23T09:32:38;17.33;;;13.27;;
45232;SDS011;30969;51.052;17.056;2022-08-23T09:37:50;22.60;;;15.45;;
45232;SDS011;30969;51.052;17.056;2022-08-23T09:43:07;18.45;;;13.95;;
45232;SDS011;30969;51.052;17.056;2022-08-23T09:53:36;13.13;;;10.85;;
45232;SDS011;30969;51.052;17.056;2022-08-23T09:58:42;15.68;;;11.45;;
45232;SDS011;30969;51.052;17.056;2022-08-23T10:09:23;13.32;;;11.60;;
45232;SDS011;30969;51.052;17.056;2022-08-23T10:14:29;16.98;;;12.05;;
45232;SDS011;30969;51.052;17.056;2022-08-23T10:19:36;14.98;;;11.85;;
45232;SDS011;30969;51.052;17.056;2022-08-23T10:24:51;16.02;;;12.07;;
45232;SDS011;30969;51.052;17.056;2022-08-23T10:30:03;13.00;;;11.60;;
45232;SDS011;30969;51.052;17.056;2022-08-23T10:35:16;15.38;;;11.15;;
45232;SDS011;30969;51.052;17.056;2022-08-23T10:40:30;15.20;;;11.20;;
45232;SDS011;30969;51.052;17.056;2022-08-23T10:45:41;14.68;;;10.85;;
45232;SDS011;30969;51.052;17.056;2022-08-23T10:50:54;16.10;;;10.52;;
45232;SDS011;30969;51.052;17.056;2022-08-23T10:56:00;13.93;;;10.43;;
45232;SDS011;30969;51.052;17.056;2022-08-23T11:01:08;12.55;;;9.93;;
45232;SDS011;30969;51.052;17.056;2022-08-23T11:06:28;16.80;;;9.98;;
45232;SDS011;30969;51.052;17.056;2022-08-23T11:12:09;11.43;;;8.77;;
45232;SDS011;30969;51.052;17.056;2022-08-23T11:17:29;15.02;;;9.55;;
45232;SDS011;30969;51.052;17.056;2022-08-23T11:33:45;14.65;;;8.40;;
45232;SDS011;30969;51.052;17.056;2022-08-23T11:39:00;11.93;;;9.02;;
45232;SDS011;30969;51.052;17.056;2022-08-23T11:44:16;9.40;;;8.38;;
45232;SDS011;30969;51.052;17.056;2022-08-23T11:54:49;15.50;;;9.13;;
45232;SDS011;30969;51.052;17.056;2022-08-23T12:00:15;11.30;;;9.13;;
45232;SDS011;30969;51.052;17.056;2022-08-23T12:05:41;17.13;;;11.52;;
45232;SDS011;30969;51.052;17.056;2022-08-23T12:11:14;13.47;;;11.30;;
45232;SDS011;30969;51.052;17.056;2022-08-23T12:16:30;17.02;;;11.63;;
45232;SDS011;30969;51.052;17.056;2022-08-23T12:21:43;13.05;;;11.68;;
45232;SDS011;30969;51.052;17.056;2022-08-23T12:26:54;14.05;;;11.68;;
45232;SDS011;30969;51.052;17.056;2022-08-23T12:32:05;17.98;;;14.10;;
45232;SDS011;30969;51.052;17.056;2022-08-23T12:37:15;19.15;;;14.52;;
45232;SDS011;30969;51.052;17.056;2022-08-23T12:42:28;19.60;;;14.75;;
45232;SDS011;30969;51.052;17.056;2022-08-23T12:47:35;20.52;;;16.40;;
45232;SDS011;30969;51.052;17.056;2022-08-23T12:52:53;24.95;;;15.35;;
45232;SDS011;30969;51.052;17.056;2022-08-23T12:57:59;23.45;;;16.92;;
45232;SDS011;30969;51.052;17.056;2022-08-23T13:03:09;22.60;;;15.88;;
45232;SDS011;30969;51.052;17.056;2022-08-23T13:08:18;19.90;;;16.00;;
45232;SDS011;30969;51.052;17.056;2022-08-23T13:13:36;19.45;;;16.13;;
45232;SDS011;30969;51.052;17.056;2022-08-23T13:18:42;19.08;;;15.15;;
45232;SDS011;30969;51.052;17.056;2022-08-23T13:23:47;16.75;;;14.43;;
45232;SDS011;30969;51.052;17.056;2022-08-23T13:39:51;20.25;;;15.20;;
45232;SDS011;30969;51.052;17.056;2022-08-23T13:45:04;16.95;;;14.02;;
45232;SDS011;30969;51.052;17.056;2022-08-23T13:50:14;21.50;;;16.63;;
45232;SDS011;30969;51.052;17.056;2022-08-23T13:55:19;19.77;;;15.43;;
45232;SDS011;30969;51.052;17.056;2022-08-23T14:00:23;26.02;;;17.92;;
45232;SDS011;30969;51.052;17.056;2022-08-23T14:05:29;18.90;;;16.38;;
45232;SDS011;30969;51.052;17.056;2022-08-23T14:10:33;21.90;;;17.15;;
45232;SDS011;30969;51.052;17.056;2022-08-23T14:15:38;19.65;;;17.05;;
45232;SDS011;30969;51.052;17.056;2022-08-23T14:21:04;22.42;;;18.60;;
45232;SDS011;30969;51.052;17.056;2022-08-23T14:26:08;20.00;;;17.33;;
45232;SDS011;30969;51.052;17.056;2022-08-23T14:31:15;21.42;;;18.42;;
45232;SDS011;30969;51.052;17.056;2022-08-23T14:36:21;25.90;;;18.85;;
45232;SDS011;30969;51.052;17.056;2022-08-23T14:41:30;27.90;;;18.55;;
45232;SDS011;30969;51.052;17.056;2022-08-23T14:46:34;26.83;;;20.40;;
45232;SDS011;30969;51.052;17.056;2022-08-23T14:51:40;22.10;;;19.02;;
45232;SDS011;30969;51.052;17.056;2022-08-23T14:56:47;24.63;;;20.48;;
45232;SDS011;30969;51.052;17.056;2022-08-23T15:01:51;26.08;;;20.02;;
45232;SDS011;30969;51.052;17.056;2022-08-23T15:06:57;26.02;;;20.70;;
45232;SDS011;30969;51.052;17.056;2022-08-23T15:12:20;26.98;;;21.58;;
45232;SDS011;30969;51.052;17.056;2022-08-23T15:17:46;26.65;;;19.95;;
45232;SDS011;30969;51.052;17.056;2022-08-23T15:22:54;28.20;;;21.08;;
45232;SDS011;30969;51.052;17.056;2022-08-23T15:27:58;25.30;;;19.40;;
45232;SDS011;30969;51.052;17.056;2022-08-23T15:33:02;22.63;;;18.13;;
45232;SDS011;30969;51.052;17.056;2022-08-23T15:38:12;26.60;;;20.10;;
45232;SDS011;30969;51.052;17.056;2022-08-23T15:43:17;27.65;;;19.85;;
45232;SDS011;30969;51.052;17.056;2022-08-23T15:48:22;35.10;;;20.52;;
45232;SDS011;30969;51.052;17.056;2022-08-23T15:53:28;27.00;;;19.42;;
45232;SDS011;30969;51.052;17.056;2022-08-23T15:58:32;27.98;;;19.73;;
45232;SDS011;30969;51.052;17.056;2022-08-23T16:03:37;28.08;;;17.83;;
45232;SDS011;30969;51.052;17.056;2022-08-23T16:08:44;27.15;;;19.13;;
45232;SDS011;30969;51.052;17.056;2022-08-23T16:13:51;26.33;;;17.73;;
45232;SDS011;30969;51.052;17.056;2022-08-23T16:18:56;24.73;;;17.30;;
45232;SDS011;30969;51.052;17.056;2022-08-23T16:24:02;22.75;;;18.33;;
45232;SDS011;30969;51.052;17.056;2022-08-23T16:29:08;23.67;;;17.92;;
45232;SDS011;30969;51.052;17.056;2022-08-23T16:34:14;24.35;;;16.05;;
45232;SDS011;30969;51.052;17.056;2022-08-23T16:39:21;18.42;;;13.85;;
45232;SDS011;30969;51.052;17.056;2022-08-23T16:44:25;20.80;;;14.57;;
45232;SDS011;30969;51.052;17.056;2022-08-23T16:49:28;17.77;;;12.07;;
45232;SDS011;30969;51.052;17.056;2022-08-23T16:54:35;18.63;;;13.18;;
45232;SDS011;30969;51.052;17.056;2022-08-23T16:59:39;16.17;;;12.13;;
45232;SDS011;30969;51.052;17.056;2022-08-23T17:04:42;18.45;;;13.18;;
45232;SDS011;30969;51.052;17.056;2022-08-23T17:09:52;19.48;;;12.55;;
45232;SDS011;30969;51.052;17.056;2022-08-23T17:14:56;20.10;;;13.20;;
45232;SDS011;30969;51.052;17.056;2022-08-23T17:20:00;15.05;;;12.20;;
45232;SDS011;30969;51.052;17.056;2022-08-23T17:25:09;13.38;;;11.93;;
45232;SDS011;30969;51.052;17.056;2022-08-23T17:30:13;15.13;;;11.15;;
45232;SDS011;30969;51.052;17.056;2022-08-23T17:35:20;17.63;;;12.43;;
45232;SDS011;30969;51.052;17.056;2022-08-23T17:40:28;18.05;;;12.65;;
45232;SDS011;30969;51.052;17.056;2022-08-23T17:45:36;21.23;;;14.30;;
45232;SDS011;30969;51.052;17.056;2022-08-23T17:50:42;22.33;;;14.30;;
45232;SDS011;30969;51.052;17.056;2022-08-23T17:55:48;19.42;;;14.90;;
45232;SDS011;30969;51.052;17.056;2022-08-23T18:00:51;18.27;;;13.07;;
45232;SDS011;30969;51.052;17.056;2022-08-23T18:05:55;19.52;;;14.23;;
45232;SDS011;30969;51.052;17.056;2022-08-23T18:11:01;17.67;;;14.18;;
45232;SDS011;30969;51.052;17.056;2022-08-23T18:16:04;21.63;;;15.50;;
45232;SDS011;30969;51.052;17.056;2022-08-23T18:21:09;20.88;;;14.60;;
45232;SDS011;30969;51.052;17.056;2022-08-23T18:26:15;19.75;;;14.60;;
45232;SDS011;30969;51.052;17.056;2022-08-23T18:31:32;16.75;;;13.10;;
45232;SDS011;30969;51.052;17.056;2022-08-23T18:36:36;17.92;;;14.10;;
45232;SDS011;30969;51.052;17.056;2022-08-23T18:41:41;21.73;;;14.02;;
45232;SDS011;30969;51.052;17.056;2022-08-23T18:46:45;19.98;;;15.77;;
45232;SDS011;30969;51.052;17.056;2022-08-23T18:51:49;21.15;;;15.23;;
45232;SDS011;30969;51.052;17.056;2022-08-23T18:56:54;18.60;;;14.13;;
45232;SDS011;30969;51.052;17.056;2022-08-23T19:01:58;19.42;;;14.35;;
45232;SDS011;30969;51.052;17.056;2022-08-23T19:07:02;24.85;;;14.82;;
45232;SDS011;30969;51.052;17.056;2022-08-23T19:12:07;23.17;;;14.65;;
45232;SDS011;30969;51.052;17.056;2022-08-23T19:17:11;18.92;;;14.40;;
45232;SDS011;30969;51.052;17.056;2022-08-23T19:22:14;21.60;;;16.00;;
45232;SDS011;30969;51.052;17.056;2022-08-23T19:27:19;21.60;;;14.55;;
45232;SDS011;30969;51.052;17.056;2022-08-23T19:32:23;20.35;;;15.50;;
45232;SDS011;30969;51.052;17.056;2022-08-23T19:37:26;18.88;;;14.30;;
45232;SDS011;30969;51.052;17.056;2022-08-23T19:42:32;20.00;;;14.85;;
45232;SDS011;30969;51.052;17.056;2022-08-23T19:47:37;21.95;;;15.18;;
45232;SDS011;30969;51.052;17.056;2022-08-23T19:52:42;19.27;;;14.65;;
45232;SDS011;30969;51.052;17.056;2022-08-23T19:57:47;24.65;;;15.13;;
45232;SDS011;30969;51.052;17.056;2022-08-23T20:02:55;27.05;;;16.75;;
45232;SDS011;30969;51.052;17.056;2022-08-23T20:07:59;22.45;;;14.35;;
45232;SDS011;30969;51.052;17.056;2022-08-23T20:13:05;19.90;;;14.10;;
45232;SDS011;30969;51.052;17.056;2022-08-23T20:18:09;24.33;;;15.32;;
45232;SDS011;30969;51.052;17.056;2022-08-23T20:23:12;20.67;;;15.38;;
45232;SDS011;30969;51.052;17.056;2022-08-23T20:28:35;22.92;;;14.57;;
45232;SDS011;30969;51.052;17.056;2022-08-23T20:33:55;20.57;;;15.37;;
45232;SDS011;30969;51.052;17.056;2022-08-23T20:38:59;21.33;;;16.00;;
45232;SDS011;30969;51.052;17.056;2022-08-23T20:44:05;23.45;;;15.57;;
45232;SDS011;30969;51.052;17.056;2022-08-23T20:49:09;22.55;;;14.73;;
45232;SDS011;30969;51.052;17.056;2022-08-23T20:54:13;24.65;;;14.15;;
45232;SDS011;30969;51.052;17.056;2022-08-23T20:59:18;26.33;;;15.50;;
45232;SDS011;30969;51.052;17.056;2022-08-23T21:04:23;23.30;;;15.27;;
45232;SDS011;30969;51.052;17.056;2022-08-23T21:09:31;22.73;;;15.15;;
45232;SDS011;30969;51.052;17.056;2022-08-23T21:14:36;25.38;;;15.50;;
45232;SDS011;30969;51.052;17.056;2022-08-23T21:19:39;24.27;;;15.98;;
45232;SDS011;30969;51.052;17.056;2022-08-23T21:24:45;20.38;;;14.90;;
45232;SDS011;30969;51.052;17.056;2022-08-23T21:29:51;32.42;;;15.70;;
45232;SDS011;30969;51.052;17.056;2022-08-23T21:34:56;27.77;;;16.58;;
45232;SDS011;30969;51.052;17.056;2022-08-23T21:40:00;25.42;;;15.48;;
45232;SDS011;30969;51.052;17.056;2022-08-23T21:45:06;20.40;;;15.45;;
45232;SDS011;30969;51.052;17.056;2022-08-23T21:50:11;25.58;;;17.25;;
45232;SDS011;30969;51.052;17.056;2022-08-23T21:55:14;28.05;;;16.73;;
45232;SDS011;30969;51.052;17.056;2022-08-23T22:00:19;28.13;;;17.90;;
45232;SDS011;30969;51.052;17.056;2022-08-23T22:05:23;31.63;;;19.48;;
45232;SDS011;30969;51.052;17.056;2022-08-23T22:10:27;28.02;;;18.60;;
45232;SDS011;30969;51.052;17.056;2022-08-23T22:15:32;30.35;;;20.02;;
45232;SDS011;30969;51.052;17.056;2022-08-23T22:20:36;32.03;;;20.88;;
45232;SDS011;30969;51.052;17.056;2022-08-23T22:25:40;35.88;;;21.48;;
45232;SDS011;30969;51.052;17.056;2022-08-23T22:30:45;36.10;;;20.95;;
45232;SDS011;30969;51.052;17.056;2022-08-23T22:35:49;32.88;;;22.33;;
45232;SDS011;30969;51.052;17.056;2022-08-23T22:40:52;36.00;;;23.27;;
45232;SDS011;30969;51.052;17.056;2022-08-23T22:45:58;35.30;;;23.77;;
45232;SDS011;30969;51.052;17.056;2022-08-23T22:51:05;32.92;;;23.15;;
45232;SDS011;30969;51.052;17.056;2022-08-23T22:56:10;41.42;;;24.65;;
45232;SDS011;30969;51.052;17.056;2022-08-23T23:01:18;44.53;;;26.33;;
45232;SDS011;30969;51.052;17.056;2022-08-23T23:06:23;41.15;;;25.20;;
45232;SDS011;30969;51.052;17.056;2022-08-23T23:11:27;39.28;;;24.20;;
45232;SDS011;30969;51.052;17.056;2022-08-23T23:16:32;44.22;;;25.85;;
45232;SDS011;30969;51.052;17.056;2022-08-23T23:21:37;46.70;;;26.25;;
45232;SDS011;30969;51.052;17.056;2022-08-23T23:26:42;51.35;;;26.38;;
45232;SDS011;30969;51.052;17.056;2022-08-23T23:31:50;42.42;;;27.20;;
45232;SDS011;30969;51.052;17.056;2022-08-23T23:36:54;41.65;;;25.63;;
45232;SDS011;30969;51.052;17.056;2022-08-23T23:41:57;53.53;;;28.00;;
45232;SDS011;30969;51.052;17.056;2022-08-23T23:47:02;50.88;;;29.13;;
45232;SDS011;30969;51.052;17.056;2022-08-23T23:52:06;57.03;;;27.83;;
45232;SDS011;30969;51.052;17.056;2022-08-23T23:57:09;51.55;;;28.30;;
